createdAt,value
2018-05-09T00:00:21.262Z,16.57
2018-05-09T00:02:49.534Z,16.56
2018-05-09T00:05:17.837Z,16.59
2018-05-09T00:07:46.107Z,16.59
2018-05-09T00:10:14.561Z,16.58
2018-05-09T00:12:42.820Z,16.55
2018-05-09T00:15:11.315Z,16.53
2018-05-09T00:17:40.411Z,16.62
2018-05-09T00:20:08.721Z,16.60
2018-05-09T00:22:37.043Z,16.55
2018-05-09T00:25:05.700Z,16.55
2018-05-09T00:27:34.482Z,16.52
2018-05-09T00:30:02.711Z,16.46
2018-05-09T00:32:31.091Z,16.42
2018-05-09T00:34:59.413Z,16.45
2018-05-09T00:37:27.793Z,16.38
2018-05-09T00:39:57.115Z,16.43
2018-05-09T00:42:25.702Z,16.37
2018-05-09T00:44:53.958Z,16.37
2018-05-09T00:47:22.301Z,16.39
2018-05-09T00:49:50.638Z,16.20
2018-05-09T00:52:18.935Z,16.23
2018-05-09T00:54:47.204Z,16.19
2018-05-09T00:57:15.532Z,16.29
2018-05-09T00:59:44.874Z,16.29
2018-05-09T01:02:13.315Z,16.30
2018-05-09T01:04:42.469Z,16.22
2018-05-09T01:07:11.060Z,16.25
2018-05-09T01:09:39.363Z,16.19
2018-05-09T01:12:07.686Z,16.15
2018-05-09T01:14:35.961Z,15.92
2018-05-09T01:17:04.297Z,15.92
2018-05-09T01:19:33.064Z,15.99
2018-05-09T01:22:01.537Z,15.95
2018-05-09T01:24:29.835Z,16.01
2018-05-09T01:26:59.392Z,15.91
2018-05-09T01:29:27.659Z,16.02
2018-05-09T01:31:56.318Z,15.99
2018-05-09T01:34:24.591Z,16.04
2018-05-09T01:36:53.318Z,16.03
2018-05-09T01:39:21.904Z,15.84
2018-05-09T01:41:50.394Z,15.97
2018-05-09T01:44:18.649Z,15.94
2018-05-09T01:46:46.955Z,15.83
2018-05-09T01:49:15.258Z,15.82
2018-05-09T01:51:43.559Z,15.71
2018-05-09T01:54:11.846Z,15.75
2018-05-09T01:56:40.375Z,15.75
2018-05-09T01:59:08.661Z,15.70
2018-05-09T02:01:36.982Z,15.81
2018-05-09T02:04:05.228Z,15.81
2018-05-09T02:06:33.539Z,15.77
2018-05-09T02:09:01.812Z,15.59
2018-05-09T02:11:30.160Z,15.59
2018-05-09T02:13:58.423Z,15.67
2018-05-09T02:16:26.900Z,15.61
2018-05-09T02:18:55.145Z,15.59
2018-05-09T02:21:23.522Z,15.57
2018-05-09T02:23:51.786Z,15.61
2018-05-09T02:26:20.132Z,15.65
2018-05-09T02:28:48.564Z,15.61
2018-05-09T02:31:17.132Z,15.66
2018-05-09T02:33:45.375Z,15.60
2018-05-09T02:36:13.749Z,15.48
2018-05-09T02:38:42.072Z,15.47
2018-05-09T02:41:10.392Z,15.38
2018-05-09T02:43:38.753Z,15.28
2018-05-09T02:46:07.005Z,15.25
2018-05-09T02:48:35.275Z,15.31
2018-05-09T02:51:03.695Z,15.36
2018-05-09T02:53:31.977Z,15.28
2018-05-09T02:56:00.687Z,15.36
2018-05-09T02:58:29.116Z,15.18
2018-05-09T03:00:57.439Z,15.20
2018-05-09T03:03:25.699Z,15.23
2018-05-09T03:05:54.004Z,15.11
2018-05-09T03:08:22.302Z,14.99
2018-05-09T03:10:50.859Z,15.03
2018-05-09T03:13:19.263Z,14.95
2018-05-09T03:15:47.564Z,15.02
2018-05-09T03:18:17.030Z,15.00
2018-05-09T03:20:45.343Z,14.91
2018-05-09T03:23:13.690Z,14.91
2018-05-09T03:25:42.115Z,14.86
2018-05-09T03:28:10.425Z,14.84
2018-05-09T03:30:38.766Z,14.89
2018-05-09T03:33:07.006Z,14.96
2018-05-09T03:35:35.343Z,14.88
2018-05-09T03:38:03.917Z,14.84
2018-05-09T03:40:32.214Z,14.86
2018-05-09T03:43:00.476Z,14.94
2018-05-09T03:45:29.293Z,14.88
2018-05-09T03:47:57.786Z,14.82
2018-05-09T03:50:26.109Z,14.89
2018-05-09T03:52:55.406Z,14.93
2018-05-09T03:55:23.694Z,14.76
2018-05-09T03:57:52.103Z,14.91
2018-05-09T04:08:24.868Z,15.18
2018-05-09T04:10:53.995Z,15.19
2018-05-09T04:13:22.988Z,15.25
2018-05-09T04:15:51.419Z,15.17
2018-05-09T04:18:19.979Z,15.19
2018-05-09T04:20:48.554Z,15.13
2018-05-09T04:23:17.119Z,15.17
2018-05-09T04:25:45.589Z,15.12
2018-05-09T04:28:14.129Z,15.25
2018-05-09T04:30:43.037Z,15.23
2018-05-09T04:33:11.487Z,15.30
2018-05-09T04:35:40.027Z,15.31
2018-05-09T04:38:08.715Z,15.31
2018-05-09T04:40:37.393Z,15.52
2018-05-09T04:43:05.988Z,15.59
2018-05-09T04:45:34.497Z,15.62
2018-05-09T04:48:03.079Z,15.66
2018-05-09T04:50:32.202Z,15.77
2018-05-09T04:53:00.775Z,15.93
2018-05-09T04:55:29.344Z,16.03
2018-05-09T04:57:57.926Z,16.15
2018-05-09T05:00:27.274Z,16.17
2018-05-09T05:02:55.914Z,16.25
2018-05-09T05:05:24.433Z,16.33
2018-05-09T05:07:52.887Z,16.49
2018-05-09T05:10:21.396Z,16.56
2018-05-09T05:12:50.035Z,16.55
2018-05-09T05:15:18.551Z,16.64
2018-05-09T05:17:47.059Z,16.68
2018-05-09T05:20:15.560Z,16.78
2018-05-09T05:22:44.127Z,16.93
2018-05-09T05:25:12.716Z,16.87
2018-05-09T05:27:41.262Z,16.98
2018-05-09T05:30:09.835Z,17.01
2018-05-09T05:32:38.499Z,17.25
2018-05-09T05:35:07.080Z,17.26
2018-05-09T05:37:35.699Z,17.35
2018-05-09T05:40:11.145Z,17.47
2018-05-09T05:42:40.007Z,17.49
2018-05-09T05:45:08.600Z,17.50
2018-05-09T05:47:37.166Z,17.63
2018-05-09T05:50:05.643Z,17.57
2018-05-09T05:52:34.700Z,17.60
2018-05-09T05:55:03.205Z,17.79
2018-05-09T05:57:31.732Z,17.75
2018-05-09T06:00:00.408Z,17.99
2018-05-09T06:02:29.820Z,18.14
2018-05-09T06:04:58.444Z,18.13
2018-05-09T06:07:26.949Z,18.24
2018-05-09T06:09:56.019Z,18.39
2018-05-09T06:12:24.472Z,18.57
2018-05-09T06:14:52.916Z,18.63
2018-05-09T06:17:21.707Z,18.79
2018-05-09T06:19:50.731Z,18.61
2018-05-09T06:22:19.298Z,18.83
2018-05-09T06:24:47.977Z,18.91
2018-05-09T06:27:16.994Z,19.00
2018-05-09T06:29:45.412Z,19.08
2018-05-09T06:32:13.952Z,19.29
2018-05-09T06:34:43.619Z,19.28
2018-05-09T06:37:12.666Z,19.06
2018-05-09T06:39:42.046Z,19.43
2018-05-09T06:42:11.790Z,19.69
2018-05-09T06:44:40.954Z,19.38
2018-05-09T06:47:09.451Z,19.62
2018-05-09T06:49:38.105Z,19.66
2018-05-09T06:52:06.720Z,19.57
2018-05-09T06:54:35.368Z,19.78
2018-05-09T06:57:04.069Z,19.83
2018-05-09T06:59:32.939Z,19.86
2018-05-09T07:02:01.453Z,19.95
2018-05-09T07:04:30.126Z,20.21
2018-05-09T07:06:58.638Z,20.15
2018-05-09T07:09:27.329Z,20.22
2018-05-09T07:11:56.532Z,20.58
2018-05-09T07:14:25.063Z,20.59
2018-05-09T07:16:54.090Z,20.64
2018-05-09T07:19:22.847Z,20.80
2018-05-09T07:21:58.344Z,20.74
2018-05-09T07:24:26.920Z,20.78
2018-05-09T07:26:55.681Z,20.94
2018-05-09T07:29:24.157Z,21.12
2018-05-09T07:31:53.684Z,21.17
2018-05-09T07:34:22.144Z,21.21
2018-05-09T07:36:50.700Z,21.30
2018-05-09T07:39:19.411Z,21.34
2018-05-09T07:41:49.033Z,21.42
2018-05-09T07:44:17.900Z,21.46
2018-05-09T07:46:46.398Z,21.82
2018-05-09T07:49:14.902Z,22.00
2018-05-09T07:51:43.627Z,21.94
2018-05-09T07:54:16.090Z,21.57
2018-05-09T07:56:44.563Z,21.69
2018-05-09T07:59:14.002Z,21.80
2018-05-09T08:01:42.620Z,21.79
2018-05-09T08:04:11.274Z,22.09
2018-05-09T08:06:40.247Z,22.42
2018-05-09T08:09:08.744Z,22.31
2018-05-09T08:11:37.117Z,22.39
2018-05-09T08:14:06.121Z,22.25
2018-05-09T08:16:34.780Z,22.55
2018-05-09T08:19:03.263Z,22.88
2018-05-09T08:21:32.028Z,22.69
2018-05-09T08:24:00.574Z,22.85
2018-05-09T08:26:29.091Z,22.74
2018-05-09T08:28:57.504Z,22.90
2018-05-09T08:31:26.024Z,23.05
2018-05-09T08:33:54.486Z,22.90
2018-05-09T08:36:23.007Z,23.04
2018-05-09T08:38:51.529Z,23.01
2018-05-09T08:41:20.195Z,23.42
2018-05-09T08:43:48.999Z,23.23
2018-05-09T08:46:17.421Z,23.48
2018-05-09T08:48:46.583Z,23.51
2018-05-09T08:51:15.574Z,23.60
2018-05-09T08:53:44.239Z,23.77
2018-05-09T08:56:13.426Z,23.72
2018-05-09T08:58:42.033Z,23.61
2018-05-09T09:01:11.911Z,23.75
2018-05-09T09:03:41.580Z,24.17
2018-05-09T09:06:10.315Z,24.22
2018-05-09T09:08:39.363Z,23.81
2018-05-09T09:11:08.059Z,23.97
2018-05-09T09:13:36.630Z,24.19
2018-05-09T09:16:06.035Z,24.45
2018-05-09T09:18:34.598Z,24.24
2018-05-09T09:21:03.682Z,24.08
2018-05-09T09:23:32.391Z,24.05
2018-05-09T09:26:01.424Z,24.53
2018-05-09T09:28:30.164Z,24.67
2018-05-09T09:30:58.726Z,24.90
2018-05-09T09:33:27.379Z,24.68
2018-05-09T09:35:57.555Z,24.93
2018-05-09T09:38:28.281Z,24.82
2018-05-09T09:40:58.025Z,25.21
2018-05-09T09:43:27.925Z,25.14
2018-05-09T09:45:58.388Z,25.07
2018-05-09T09:48:28.527Z,25.50
2018-05-09T09:51:00.582Z,25.47
2018-05-09T09:53:32.292Z,25.37
2018-05-09T09:56:01.044Z,25.40
2018-05-09T09:58:29.737Z,25.60
2018-05-09T10:00:59.039Z,25.66
2018-05-09T10:03:28.454Z,25.65
2018-05-09T10:08:35.624Z,26.21
2018-05-09T10:11:04.364Z,25.97
2018-05-09T10:13:47.915Z,26.10
2018-05-09T10:16:16.651Z,25.94
2018-05-09T10:18:45.216Z,26.13
2018-05-09T10:21:13.947Z,26.41
2018-05-09T10:23:42.617Z,26.39
2018-05-09T10:26:11.535Z,27.05
2018-05-09T10:28:40.413Z,27.48
2018-05-09T10:31:10.052Z,27.12
2018-05-09T10:33:38.723Z,27.43
2018-05-09T10:36:07.453Z,28.13
2018-05-09T10:38:36.112Z,28.05
2018-05-09T10:41:05.747Z,28.90
2018-05-09T10:43:36.010Z,28.70
2018-05-09T10:46:05.726Z,28.80
2018-05-09T10:48:35.231Z,28.60
2018-05-09T10:51:05.138Z,29.25
2018-05-09T10:53:34.673Z,30.20
2018-05-09T10:56:03.331Z,28.98
2018-05-09T10:58:31.991Z,28.72
2018-05-09T11:01:00.709Z,29.78
2018-05-09T11:03:29.968Z,30.85
2018-05-09T11:05:59.671Z,31.23
2018-05-09T11:08:28.740Z,30.83
2018-05-09T11:10:58.527Z,30.65
2018-05-09T11:13:27.226Z,31.15
2018-05-09T11:15:56.068Z,31.06
2018-05-09T11:18:24.696Z,31.12
2018-05-09T11:20:53.492Z,29.06
2018-05-09T11:23:22.063Z,28.56
2018-05-09T11:25:50.494Z,27.29
2018-05-09T11:28:20.839Z,28.78
2018-05-09T11:30:51.318Z,28.31
2018-05-09T11:33:20.943Z,30.49
2018-05-09T11:35:50.240Z,31.84
2018-05-09T11:38:19.250Z,30.88
2018-05-09T11:40:48.072Z,28.94
2018-05-09T11:43:16.663Z,30.37
2018-05-09T11:45:45.163Z,29.42
2018-05-09T11:48:13.819Z,28.79
2018-05-09T11:50:42.336Z,29.71
2018-05-09T11:53:10.852Z,29.28
2018-05-09T11:55:40.319Z,28.80
2018-05-09T11:58:08.986Z,28.64
2018-05-09T12:00:37.543Z,28.28
2018-05-09T12:03:06.521Z,28.31
2018-05-09T12:05:35.309Z,30.04
2018-05-09T12:08:03.900Z,30.42
2018-05-09T12:10:32.585Z,29.71
2018-05-09T12:13:01.114Z,29.59
2018-05-09T12:15:29.712Z,29.54
2018-05-09T12:17:58.350Z,31.63
2018-05-09T12:20:26.936Z,30.41
2018-05-09T12:22:57.000Z,31.64
2018-05-09T12:25:26.120Z,30.29
2018-05-09T12:27:54.898Z,32.55
2018-05-09T12:30:23.650Z,33.69
2018-05-09T12:32:52.231Z,33.92
2018-05-09T12:35:20.785Z,34.22
2018-05-09T12:37:49.598Z,34.16
2018-05-09T12:40:18.079Z,33.19
2018-05-09T12:42:46.620Z,30.51
2018-05-09T12:45:15.492Z,29.53
2018-05-09T12:47:43.971Z,30.34
2018-05-09T12:50:12.949Z,32.27
2018-05-09T12:52:41.587Z,29.68
2018-05-09T12:55:10.424Z,33.36
2018-05-09T12:57:39.011Z,29.97
2018-05-09T13:00:08.408Z,33.12
2018-05-09T13:02:37.305Z,34.73
2018-05-09T13:05:06.427Z,35.07
2018-05-09T13:07:35.100Z,35.01
2018-05-09T13:10:04.671Z,34.18
2018-05-09T13:12:33.426Z,33.58
2018-05-09T13:15:03.209Z,35.05
2018-05-09T13:17:34.202Z,35.03
2018-05-09T13:20:03.611Z,35.33
2018-05-09T13:22:33.074Z,33.18
2018-05-09T13:25:02.052Z,34.48
2018-05-09T13:27:30.953Z,35.09
2018-05-09T13:29:59.823Z,34.67
2018-05-09T13:32:30.173Z,35.66
2018-05-09T13:34:58.991Z,32.34
2018-05-09T13:37:27.599Z,30.41
2018-05-09T13:39:56.436Z,32.10
2018-05-09T13:42:25.099Z,29.62
2018-05-09T13:44:53.990Z,29.80
2018-05-09T13:47:22.506Z,32.59
2018-05-09T13:49:51.611Z,35.47
2018-05-09T13:52:20.362Z,31.88
2018-05-09T13:54:49.334Z,30.83
2018-05-09T13:57:18.283Z,30.87
2018-05-09T13:59:46.975Z,33.44
2018-05-09T14:02:15.425Z,34.86
2018-05-09T14:04:44.523Z,30.86
2018-05-09T14:07:13.342Z,34.31
2018-05-09T14:09:42.025Z,36.30
2018-05-09T14:12:10.609Z,35.49
2018-05-09T14:14:39.466Z,35.00
2018-05-09T14:17:08.556Z,35.95
2018-05-09T14:19:37.193Z,36.35
2018-05-09T14:22:06.777Z,35.71
2018-05-09T14:24:35.711Z,35.90
2018-05-09T14:27:05.705Z,35.86
2018-05-09T14:29:34.839Z,35.27
2018-05-09T14:32:03.371Z,35.86
2018-05-09T14:34:32.647Z,35.15
2018-05-09T14:37:01.302Z,35.87
2018-05-09T14:39:29.902Z,35.05
2018-05-09T14:41:58.474Z,35.49
2018-05-09T14:44:27.163Z,35.81
2018-05-09T14:46:55.816Z,35.37
2018-05-09T14:49:24.764Z,35.54
2018-05-09T14:51:53.711Z,35.90
2018-05-09T14:54:22.357Z,34.96
2018-05-09T14:56:51.219Z,35.05
2018-05-09T14:59:20.122Z,35.55
2018-05-09T15:01:49.135Z,32.30
2018-05-09T15:04:17.715Z,36.14
2018-05-09T15:06:56.470Z,35.06
2018-05-09T15:09:25.576Z,34.83
2018-05-09T15:11:55.323Z,34.07
2018-05-09T15:14:24.363Z,32.47
2018-05-09T15:16:57.992Z,31.61
2018-05-09T15:19:26.659Z,29.83
2018-05-09T15:21:55.572Z,29.08
2018-05-09T15:24:24.297Z,28.90
2018-05-09T15:26:53.866Z,28.68
2018-05-09T15:29:22.930Z,28.62
2018-05-09T15:31:52.260Z,28.49
2018-05-09T15:34:21.836Z,28.16
2018-05-09T15:36:51.263Z,28.01
2018-05-09T15:39:19.948Z,27.74
2018-05-09T15:41:49.088Z,27.85
2018-05-09T15:44:17.839Z,27.97
2018-05-09T15:46:47.535Z,28.28
2018-05-09T15:49:16.183Z,28.62
2018-05-09T15:51:44.803Z,28.13
2018-05-09T15:54:13.669Z,28.35
2018-05-09T15:56:42.143Z,29.46
2018-05-09T15:59:11.466Z,28.91
2018-05-09T16:01:40.588Z,28.47
2018-05-09T16:04:11.410Z,28.07
2018-05-09T16:06:40.544Z,28.38
2018-05-09T16:09:09.299Z,27.98
2018-05-09T16:11:38.188Z,27.67
2018-05-09T16:14:07.915Z,27.75
2018-05-09T16:16:45.565Z,27.63
2018-05-09T16:19:14.329Z,27.73
2018-05-09T16:21:43.283Z,27.41
2018-05-09T16:24:12.972Z,27.31
2018-05-09T16:26:42.451Z,27.28
2018-05-09T16:29:14.226Z,27.26
2018-05-09T16:31:46.970Z,26.84
2018-05-09T16:34:16.438Z,26.94
2018-05-09T16:36:45.112Z,26.83
2018-05-09T16:39:13.796Z,26.78
2018-05-09T16:41:42.241Z,26.58
2018-05-09T16:44:12.067Z,26.69
2018-05-09T16:46:41.865Z,26.70
2018-05-09T16:49:10.331Z,26.56
2018-05-09T16:51:39.192Z,26.35
2018-05-09T16:54:07.948Z,26.11
2018-05-09T16:56:37.346Z,26.10
2018-05-09T16:59:06.687Z,26.00
2018-05-09T17:01:35.800Z,25.89
2018-05-09T17:04:04.416Z,25.73
2018-05-09T17:06:34.917Z,25.83
2018-05-09T17:09:03.828Z,25.83
2018-05-09T17:11:33.024Z,25.76
2018-05-09T17:14:03.493Z,25.77
2018-05-09T17:16:33.951Z,25.72
2018-05-09T17:19:04.749Z,25.58
2018-05-09T17:21:46.031Z,25.58
2018-05-09T17:24:14.727Z,25.50
2018-05-09T17:26:43.414Z,25.34
2018-05-09T17:29:12.104Z,25.37
2018-05-09T17:31:41.871Z,25.42
2018-05-09T17:34:10.929Z,25.34
2018-05-09T17:36:39.911Z,25.44
2018-05-09T17:39:08.900Z,25.19
2018-05-09T17:41:37.955Z,25.24
2018-05-09T17:44:07.056Z,25.19
2018-05-09T17:46:35.760Z,25.24
2018-05-09T17:49:04.406Z,25.36
2018-05-09T17:51:32.824Z,25.44
2018-05-09T17:54:01.584Z,25.42
2018-05-09T17:56:30.151Z,25.45
2018-05-09T17:58:59.452Z,25.45
2018-05-09T18:01:29.691Z,25.40
2018-05-09T18:04:00.283Z,25.10
2018-05-09T18:06:29.088Z,24.93
2018-05-09T18:08:59.388Z,24.71
2018-05-09T18:11:30.058Z,24.56
2018-05-09T18:13:58.813Z,24.52
2018-05-09T18:16:27.388Z,24.30
2018-05-09T18:18:56.501Z,24.10
2018-05-09T18:21:26.671Z,23.76
2018-05-09T18:23:55.250Z,23.23
2018-05-09T18:26:24.825Z,23.11
2018-05-09T18:28:54.048Z,23.17
2018-05-09T18:31:23.315Z,22.83
2018-05-09T18:33:51.824Z,22.86
2018-05-09T18:36:20.512Z,22.86
2018-05-09T18:38:49.987Z,22.92
2018-05-09T18:41:19.599Z,22.61
2018-05-09T18:43:48.381Z,22.65
2018-05-09T18:46:16.945Z,22.39
2018-05-09T18:48:45.556Z,22.52
2018-05-09T18:51:15.164Z,22.46
2018-05-09T18:53:44.167Z,22.31
2018-05-09T18:56:12.883Z,22.33
2018-05-09T18:58:41.339Z,21.95
2018-05-09T19:01:09.930Z,21.96
2018-05-09T19:03:39.380Z,21.74
2018-05-09T19:06:08.073Z,21.47
2018-05-09T19:08:36.964Z,21.26
2018-05-09T19:11:06.446Z,21.19
2018-05-09T19:13:35.167Z,21.09
2018-05-09T19:16:03.847Z,21.00
2018-05-09T19:18:32.512Z,21.11
2018-05-09T19:21:01.399Z,20.94
2018-05-09T19:23:30.067Z,20.89
2018-05-09T19:25:59.176Z,20.84
2018-05-09T19:28:28.009Z,20.79
2018-05-09T19:30:56.973Z,20.77
2018-05-09T19:33:25.609Z,20.61
2018-05-09T19:35:54.127Z,20.50
2018-05-09T19:38:23.412Z,20.48
2018-05-09T19:40:51.989Z,20.38
2018-05-09T19:43:21.047Z,20.36
2018-05-09T19:45:49.736Z,20.42
2018-05-09T19:48:18.449Z,20.41
2018-05-09T19:50:47.365Z,20.43
2018-05-09T19:53:15.944Z,20.35
2018-05-09T19:55:44.624Z,20.51
2018-05-09T19:58:13.498Z,20.39
2018-05-09T20:00:41.985Z,20.40
2018-05-09T20:03:11.180Z,20.43
2018-05-09T20:05:39.782Z,20.28
2018-05-09T20:08:08.491Z,20.34
2018-05-09T20:10:37.388Z,20.27
2018-05-09T20:13:06.216Z,20.21
2018-05-09T20:15:35.354Z,20.18
2018-05-09T20:18:04.122Z,20.18
2018-05-09T20:20:32.846Z,20.12
2018-05-09T20:23:01.632Z,20.21
2018-05-09T20:25:30.092Z,20.12
2018-05-09T20:27:59.283Z,20.14
2018-05-09T20:30:32.032Z,20.06
2018-05-09T20:33:00.600Z,20.04
2018-05-09T20:35:29.123Z,19.97
2018-05-09T20:37:58.000Z,19.97
2018-05-09T20:40:26.502Z,19.89
2018-05-09T20:42:55.604Z,20.03
2018-05-09T20:45:24.338Z,20.10
2018-05-09T20:47:53.992Z,20.13
2018-05-09T20:50:22.498Z,20.26
2018-05-09T20:52:53.882Z,20.42
2018-05-09T20:55:30.475Z,20.50
2018-05-09T20:57:59.926Z,20.51
2018-05-09T21:00:28.679Z,20.55
2018-05-09T21:02:59.121Z,20.58
2018-05-09T21:05:27.936Z,20.48
2018-05-09T21:07:58.963Z,20.46
2018-05-09T21:10:29.784Z,20.44
2018-05-09T21:12:58.558Z,20.44
2018-05-09T21:15:28.372Z,20.42
2018-05-09T21:17:57.320Z,20.29
2018-05-09T21:20:25.861Z,20.32
2018-05-09T21:22:54.977Z,20.24
2018-05-09T21:25:23.861Z,20.17
2018-05-09T21:27:57.579Z,20.20
2018-05-09T21:30:27.706Z,20.19
2018-05-09T21:32:57.917Z,20.14
2018-05-09T21:35:26.876Z,20.07
2018-05-09T21:37:57.469Z,20.09
2018-05-09T21:40:26.481Z,20.02
2018-05-09T21:42:54.946Z,20.01
2018-05-09T21:45:23.494Z,19.91
2018-05-09T21:47:56.449Z,19.97
2018-05-09T21:50:26.748Z,19.95
2018-05-09T21:52:58.792Z,19.83
2018-05-09T21:55:31.109Z,19.83
2018-05-09T21:58:01.414Z,19.84
2018-05-09T22:00:31.196Z,19.73
2018-05-09T22:02:59.991Z,19.67
2018-05-09T22:05:28.866Z,19.66
2018-05-09T22:08:02.932Z,19.68
2018-05-09T22:10:33.315Z,19.44
2018-05-09T22:13:02.235Z,19.35
2018-05-09T22:15:30.906Z,19.38
2018-05-09T22:17:59.297Z,19.18
2018-05-09T22:20:28.192Z,19.10
2018-05-09T22:22:56.589Z,18.99
2018-05-09T22:25:25.167Z,18.95
2018-05-09T22:27:53.823Z,18.80
2018-05-09T22:30:22.320Z,18.73
2018-05-09T22:32:53.745Z,18.68
2018-05-09T22:35:22.470Z,18.61
2018-05-09T22:37:51.008Z,18.56
2018-05-09T22:40:19.738Z,18.48
2018-05-09T22:42:48.367Z,18.42
2018-05-09T22:45:17.742Z,18.38
2018-05-09T22:47:46.474Z,18.33
2018-05-09T22:50:15.092Z,18.40
2018-05-09T22:52:43.736Z,18.26
2018-05-09T22:55:12.378Z,18.29
2018-05-09T22:57:40.819Z,18.31
2018-05-09T23:00:09.795Z,18.30
2018-05-09T23:02:44.279Z,18.21
2018-05-09T23:05:17.202Z,18.36
2018-05-09T23:07:46.471Z,18.37
2018-05-09T23:10:15.297Z,18.42
2018-05-09T23:12:43.900Z,18.42
2018-05-09T23:15:12.937Z,18.53
2018-05-09T23:17:42.185Z,18.54
2018-05-09T23:20:11.185Z,18.56
2018-05-09T23:22:41.655Z,18.73
2018-05-09T23:25:10.282Z,18.82
2018-05-09T23:27:38.703Z,18.86
2018-05-09T23:30:08.165Z,18.89
2018-05-09T23:32:37.249Z,18.83
2018-05-09T23:35:05.925Z,18.97
2018-05-09T23:37:35.299Z,19.07
2018-05-09T23:40:03.863Z,19.00
2018-05-09T23:42:32.690Z,18.90
2018-05-09T23:45:01.239Z,18.98
2018-05-09T23:47:29.980Z,18.97
2018-05-09T23:49:58.586Z,18.96
2018-05-09T23:52:27.270Z,18.90
2018-05-09T23:54:55.738Z,18.87
2018-05-09T23:57:24.468Z,18.84
2018-05-09T23:59:53.151Z,18.80
